createdAt,value
2022-12-13T00:03:05.956Z,96874.2
2022-12-13T00:08:41.216Z,96878.8
2022-12-13T00:14:16.183Z,96875.2
2022-12-13T00:19:51.487Z,96874.7
2022-12-13T00:25:26.849Z,96885.1
2022-12-13T00:32:00.309Z,96888.8
2022-12-13T00:37:37.781Z,96901.5
2022-12-13T00:43:12.772Z,96894.4
2022-12-13T00:48:47.720Z,96890
2022-12-13T00:54:22.691Z,96886.6
2022-12-13T01:00:03.595Z,96897
2022-12-13T01:06:17.331Z,96895.3
2022-12-13T01:11:53.530Z,96913.2
2022-12-13T01:17:40.850Z,96923.3
2022-12-13T01:23:16.060Z,96926.1
2022-12-13T01:28:51.298Z,96930.1
2022-12-13T01:34:27.532Z,96930.4
2022-12-13T01:40:16.983Z,96924.7
2022-12-13T01:45:53.086Z,96929.9
2022-12-13T01:51:28.887Z,96944.6
2022-12-13T01:57:04.135Z,96933.2
2022-12-13T02:02:39.581Z,96920.8
2022-12-13T02:08:17.708Z,96930.4
2022-12-13T02:13:57.031Z,96944.3
2022-12-13T02:19:34.211Z,96947.5
2022-12-13T02:25:09.716Z,96953.7
2022-12-13T02:30:45.065Z,96964.1
2022-12-13T02:36:26.081Z,96963.1
2022-12-13T02:42:01.416Z,96971
2022-12-13T02:47:36.726Z,96981.7
2022-12-13T02:53:12.609Z,96988
2022-12-13T02:58:47.413Z,96989.8
2022-12-13T03:04:27.137Z,97004.5
2022-12-13T03:10:02.473Z,97006.4
2022-12-13T03:15:38.076Z,97018.2
2022-12-13T03:21:13.760Z,97026.7
2022-12-13T03:26:50.127Z,97033.9
2022-12-13T03:32:25.439Z,97036.8
2022-12-13T03:38:00.532Z,97042.9
2022-12-13T03:43:35.995Z,97054.1
2022-12-13T03:49:18.213Z,97045
2022-12-13T03:54:53.316Z,97047.5
2022-12-13T04:00:28.844Z,97048.3
2022-12-13T04:06:04.009Z,97045.9
2022-12-13T04:11:43.896Z,97047.8
2022-12-13T04:17:18.990Z,97058.5
2022-12-13T04:22:54.404Z,97057.3
2022-12-13T04:28:30.088Z,97075.9
2022-12-13T04:34:05.402Z,97084.9
2022-12-13T04:39:48.503Z,97105.2
2022-12-13T04:45:23.583Z,97063
2022-12-13T04:51:02.209Z,97056.2
2022-12-13T04:56:37.258Z,97090.6
2022-12-13T05:02:12.924Z,97087.8
2022-12-13T05:08:00.969Z,97079.6
2022-12-13T05:13:36.652Z,97074.1
2022-12-13T05:19:12.363Z,97076.9
2022-12-13T05:24:48.212Z,97082
2022-12-13T05:30:23.577Z,97078.4
2022-12-13T05:36:02.855Z,97089.5
2022-12-13T05:41:38.001Z,97098.4
2022-12-13T05:47:12.839Z,97109.8
2022-12-13T05:52:48.944Z,97122.3
2022-12-13T05:58:23.976Z,97124.2
2022-12-13T06:03:59.303Z,97121.9
2022-12-13T06:09:40.800Z,97119.1
2022-12-13T06:15:23.404Z,97118.5
2022-12-13T06:21:10.112Z,97136.1
2022-12-13T06:26:46.960Z,97139.1
2022-12-13T06:32:22.150Z,97127
2022-12-13T06:38:02.690Z,97111.4
2022-12-13T06:44:07.921Z,97126.5
2022-12-13T06:49:45.709Z,97141.7
2022-12-13T06:55:24.677Z,97141.6
2022-12-13T07:01:02.490Z,97134
2022-12-13T07:06:38.364Z,97144.3
2022-12-13T07:12:13.375Z,97143
2022-12-13T07:17:48.543Z,97145.2
2022-12-13T07:23:25.087Z,97143.2
2022-12-13T07:29:00.534Z,97154.6
2022-12-13T07:34:45.034Z,97163.7
2022-12-13T07:40:20.227Z,97161.8
2022-12-13T07:45:55.673Z,97181.6
2022-12-13T07:51:34.537Z,97173.8
2022-12-13T07:57:10.915Z,97170.3
2022-12-13T08:02:46.201Z,97165
2022-12-13T08:08:32.376Z,97172.6
2022-12-13T08:14:08.473Z,97180.6
2022-12-13T08:19:43.661Z,97177
2022-12-13T08:25:18.945Z,97183.3
2022-12-13T08:30:58.234Z,97183.3
2022-12-13T08:36:33.851Z,97181.1
2022-12-13T08:42:20.511Z,97178.5
2022-12-13T08:48:04.627Z,97170.6
2022-12-13T08:53:42.263Z,97174.7
2022-12-13T08:59:20.943Z,97182
2022-12-13T09:04:55.731Z,97165.6
2022-12-13T09:10:39.313Z,97164.6
2022-12-13T09:16:25.065Z,97178.8
2022-12-13T09:22:03.740Z,97186.8
2022-12-13T09:27:40.771Z,97190.6
2022-12-13T09:33:32.183Z,97191.8
2022-12-13T09:39:17.866Z,97192.3
2022-12-13T09:45:04.654Z,97179.3
2022-12-13T09:51:28.512Z,97173.4
2022-12-13T09:57:49.214Z,97166.4
2022-12-13T10:03:26.289Z,97163.2
2022-12-13T10:09:02.237Z,97156.6
2022-12-13T10:14:46.163Z,97168.1
2022-12-13T10:20:26.322Z,97159.2
2022-12-13T10:26:04.490Z,97158.5
2022-12-13T10:31:40.304Z,97157.4
2022-12-13T10:37:18.192Z,97141.1
2022-12-13T10:43:01.337Z,97141.6
2022-12-13T10:48:40.185Z,97140.6
2022-12-13T10:54:15.474Z,97134.7
2022-12-13T11:00:23.981Z,97132.4
2022-12-13T11:05:59.750Z,97128.4
2022-12-13T11:11:34.978Z,97119.5
2022-12-13T11:17:10.148Z,97102
2022-12-13T11:22:45.419Z,97090.3
2022-12-13T11:28:28.373Z,97099.9
2022-12-13T11:34:04.244Z,97097.8
2022-12-13T11:39:39.567Z,97107.5
2022-12-13T11:45:24.296Z,97095.4
2022-12-13T11:50:59.436Z,97079.7
2022-12-13T11:56:39.432Z,97076.3
2022-12-13T12:02:18.180Z,97063.7
2022-12-13T12:08:44.423Z,97054.8
2022-12-13T12:14:23.232Z,97053.4
2022-12-13T12:20:09.025Z,97051.2
2022-12-13T12:26:05.172Z,97038
2022-12-13T12:31:51.772Z,97032.2
2022-12-13T12:37:28.253Z,97016.6
2022-12-13T12:43:28.147Z,97008.3
2022-12-13T12:49:52.095Z,96992.7
2022-12-13T12:55:36.168Z,96986.1
2022-12-13T13:01:21.742Z,96983.5
2022-12-13T13:07:24.545Z,96974
2022-12-13T13:13:13.456Z,96977.9
2022-12-13T13:18:59.075Z,96961.5
2022-12-13T13:24:35.374Z,96952.2
2022-12-13T13:30:11.326Z,96946.2
2022-12-13T13:35:47.026Z,96949
2022-12-13T13:41:26.389Z,96939.9
2022-12-13T13:47:32.485Z,96933.7
2022-12-13T13:53:05.666Z,96922.5
2022-12-13T13:58:56.200Z,96908.2
2022-12-13T14:04:41.698Z,96904.2
2022-12-13T14:10:31.698Z,96906.1
2022-12-13T14:16:30.511Z,96894.2
2022-12-13T14:22:12.293Z,96900.3
2022-12-13T14:27:50.543Z,96898
2022-12-13T14:33:27.578Z,96896.9
2022-12-13T14:39:25.332Z,96892.6
2022-12-13T14:45:02.389Z,96890.9
2022-12-13T14:50:37.762Z,96890.6
2022-12-13T14:56:29.802Z,96892.7
2022-12-13T15:02:08.130Z,96886.6
2022-12-13T15:07:49.235Z,96894.6
2022-12-13T15:13:29.951Z,96903.5
2022-12-13T15:19:11.494Z,96908
2022-12-13T15:25:27.262Z,96906
2022-12-13T15:31:16.371Z,96909.9
2022-12-13T15:37:42.954Z,96910.4
2022-12-13T15:43:21.192Z,96904.3
2022-12-13T15:49:18.233Z,96890.3
2022-12-13T15:54:51.025Z,96888.9
2022-12-13T16:00:38.731Z,96887.5
2022-12-13T16:06:14.323Z,96891.7
2022-12-13T16:11:49.919Z,96896.2
2022-12-13T16:17:25.382Z,96882.8
2022-12-13T16:23:09.756Z,96877.4
2022-12-13T16:29:03.346Z,96858.7
2022-12-13T16:35:09.180Z,96853.3
2022-12-13T16:40:49.487Z,96864.6
2022-12-13T16:47:50.062Z,96864.2
2022-12-13T16:53:27.030Z,96860
2022-12-13T16:59:04.783Z,96849.3
2022-12-13T17:04:50.189Z,96838.2
2022-12-13T17:10:25.803Z,96823.7
2022-12-13T17:16:00.649Z,96818.5
2022-12-13T17:21:36.909Z,96826.7
2022-12-13T17:27:17.512Z,96815.4
2022-12-13T17:32:59.264Z,96820.6
2022-12-13T17:38:37.230Z,96820.5
2022-12-13T17:44:22.133Z,96820
2022-12-13T17:49:58.368Z,96810.7
2022-12-13T17:55:37.359Z,96805.5
2022-12-13T18:01:16.312Z,96810.8
2022-12-13T18:07:03.664Z,96809.7
2022-12-13T18:12:38.683Z,96807
2022-12-13T18:18:16.555Z,96801.3
2022-12-13T18:23:56.860Z,96802.7
2022-12-13T18:29:56.262Z,96816.1
2022-12-13T18:35:35.993Z,96811.1
2022-12-13T18:41:11.325Z,96808.3
2022-12-13T18:47:08.181Z,96810.3
2022-12-13T18:52:41.067Z,96804.2
2022-12-13T18:58:17.637Z,96800.5
2022-12-13T19:03:52.458Z,96792
2022-12-13T19:09:36.032Z,96795.7
2022-12-13T19:15:13.622Z,96797
2022-12-13T19:20:49.649Z,96797.9
2022-12-13T19:26:27.407Z,96790.2
2022-12-13T19:32:03.839Z,96785.9
2022-12-13T19:37:40.121Z,96775.6
2022-12-13T19:43:18.053Z,96773.3
2022-12-13T19:49:14.822Z,96765.1
2022-12-13T19:54:48.840Z,96758.1
2022-12-13T20:00:25.411Z,96750.2
2022-12-13T20:06:07.494Z,96746.3
2022-12-13T20:11:46.554Z,96740.8
2022-12-13T20:17:36.963Z,96743.4
2022-12-13T20:23:12.477Z,96736.7
2022-12-13T20:28:54.559Z,96724.6
2022-12-13T20:34:35.210Z,96729.7
2022-12-13T20:40:15.624Z,96734.9
2022-12-13T20:46:03.665Z,96750.1
2022-12-13T20:51:38.892Z,96752.5
2022-12-13T20:57:20.640Z,96747.6
2022-12-13T21:02:55.848Z,96743.2
2022-12-13T21:08:33.495Z,96748.8
2022-12-13T21:14:23.387Z,96752
2022-12-13T21:20:02.154Z,96754.1
2022-12-13T21:25:43.011Z,96764.8
2022-12-13T21:31:26.895Z,96775.1
2022-12-13T21:37:07.090Z,96796.4
2022-12-13T21:42:43.046Z,96811.4
2022-12-13T21:48:43.131Z,96831.5
2022-12-13T21:54:25.691Z,96837.6
2022-12-13T22:00:10.400Z,96841.5
2022-12-13T22:05:47.390Z,96867.9
2022-12-13T22:11:22.640Z,96878.2
2022-12-13T22:17:08.506Z,96880.9
2022-12-13T22:23:11.383Z,96892.9
2022-12-13T22:28:55.451Z,96919.5
2022-12-13T22:34:36.284Z,96922.8
2022-12-13T22:40:14.571Z,96914.1
2022-12-13T22:45:50.188Z,96920
2022-12-13T22:51:25.953Z,96928.9
2022-12-13T22:57:11.110Z,96942.1
2022-12-13T23:02:48.895Z,96954.4
2022-12-13T23:08:26.757Z,96964.5
2022-12-13T23:14:04.237Z,96960.6
2022-12-13T23:19:53.987Z,96956.5
2022-12-13T23:25:30.879Z,96953.4
2022-12-13T23:31:06.165Z,96955.7
2022-12-13T23:36:44.478Z,96974.6
2022-12-13T23:42:45.155Z,96986.4
2022-12-13T23:49:05.514Z,96974.8
2022-12-13T23:54:38.351Z,96915
